Hauptseite
METAR-TAF:

METAR-TAF

Flughäfen :

Flughafen Mauritius

Mauritius, Mauritius

Breite: 20-26S, Länge: 057-40E, Höhe: 55 m

Beobachtung

Neuester Wetterbericht von vor 1 Stunde und 19 Minuten, um 10:00 UTC
Wind 11 kt aus Ost/Nordost
Temperatur 31°C
Luftfeuchtigkeit 59%
Luftdruck 1015 hPa
Sichtweite 10 km oder mehr
Leicht bewölkt in der Höhe von 1900 ft
Durchbrochene Bewölkung in der Höhe von 25000 ft

METAR: FIMP 221000Z 06011KT 9999 FEW019 BKN250 31/22 Q1015

Zeit: 15:19 (11:19 UTC)

Prognose

Neuester Wetterbericht von vor 6 Stunden und 9 Minuten, um 05:10 UTC
Gültige Prognose vom 22 um 06 UTC bis 23 um 12 UTC
Wind 10 kt aus Ost/Nordost
Sichtweite 10 km oder mehr
Aufgelockert bewölkt in der Höhe von 1700 ft

TAF: FIMP 220510Z 2206/2312 06010KT 9999 SCT017

Wetterbeobachtungen und Prognosen von mehr als 4000 Flughäfen (METAR und TAF Bericht).

Die verfügbaren Stationen werden durch gelbe und rote Markierungen auf der Karte dargestellt.

Führen Sie die Maus auf sie, um den Namen der Station zu sehen.

Darauf klicken, um die Beobachtung von Wetterbeobachtungen und Prognosen zu sehen.

Um die Karte zu ändern : klicken Sie auf den grünen Tasten mit einem schwarzen Kreuz Zum Vergrößern, auf den grünen Button mit einem Gedankenstrich zu verkleinern, oder auf die grünen Pfeile für benachbarte Karten.


METAR-TAF: